Time;durP1;ratioP1;P1;durP2;ratioP2;P2;SDS_P1;SDS_P2;PMS_P1;PMS_P2;Temp;Humidity;BMP_temperature;BMP_pressure;BME280_temperature;BME280_humidity;BME280_pressure;Samples;Min_cycle;Max_cycle;Signal;HPM_P1;HPM_P2
2021/09/13 00:01:33;;;;;;;7.38;4.43;;;;;;;15.49;69.15;92785.66;5014321;28;20076;-94
2021/09/13 00:04:00;;;;;;;6.72;4.22;;;;;;;15.46;69.32;92780.22;4996282;28;20068;-93
2021/09/13 00:06:27;;;;;;;6.43;3.88;;;;;;;15.44;69.43;92783.16;5004278;28;20255;-94
2021/09/13 00:08:53;;;;;;;6.50;3.88;;;;;;;15.37;69.65;92774.94;5023855;28;20038;-93
2021/09/13 00:11:19;;;;;;;8.00;4.38;;;;;;;15.36;69.82;92778.66;5030151;28;20436;-95
2021/09/13 00:13:47;;;;;;;7.35;4.32;;;;;;;15.34;69.95;92786.09;4983256;28;20037;-92
2021/09/13 00:16:17;;;;;;;6.47;4.00;;;;;;;15.45;69.93;92803.19;4976210;28;20671;-94
2021/09/13 00:18:43;;;;;;;7.10;4.28;;;;;;;15.29;70.30;92778.31;5010001;28;20034;-93
2021/09/13 00:21:09;;;;;;;7.05;3.63;;;;;;;15.26;70.17;92773.66;5008916;28;20045;-94
2021/09/13 00:23:36;;;;;;;6.80;4.68;;;;;;;15.27;70.34;92780.50;4998794;28;20040;-94
2021/09/13 00:26:03;;;;;;;6.85;4.20;;;;;;;15.40;70.32;92798.84;4979184;28;20018;-94
2021/09/13 00:28:30;;;;;;;7.38;4.28;;;;;;;15.30;70.17;92785.16;4998643;28;20124;-94
2021/09/13 00:30:56;;;;;;;7.45;4.72;;;;;;;15.24;70.36;92776.59;5014773;28;20029;-94
2021/09/13 00:33:24;;;;;;;6.28;3.80;;;;;;;15.46;70.24;92812.66;5003471;28;20069;-94
2021/09/13 00:35:50;;;;;;;6.18;4.15;;;;;;;15.41;70.18;92799.59;4995072;28;20478;-94
2021/09/13 00:38:17;;;;;;;6.55;4.32;;;;;;;15.24;70.11;92781.09;4997405;28;20483;-93
2021/09/13 00:40:43;;;;;;;7.88;4.45;;;;;;;15.19;70.07;92774.88;5000475;28;20033;-94
2021/09/13 00:43:13;;;;;;;6.80;4.25;;;;;;;15.17;69.87;92776.28;4995545;28;20038;-93
2021/09/13 00:45:39;;;;;;;6.05;3.85;;;;;;;15.10;69.81;92774.09;4984661;28;20072;-94
2021/09/13 00:48:07;;;;;;;6.13;3.75;;;;;;;15.23;70.21;92795.38;5031247;28;20021;-95
2021/09/13 00:50:33;;;;;;;7.00;4.28;;;;;;;15.05;70.20;92762.94;5001727;28;20053;-95
2021/09/13 00:53:00;;;;;;;7.05;4.32;;;;;;;15.01;70.25;92773.28;4982077;28;20029;-94
2021/09/13 00:55:28;;;;;;;10.35;4.68;;;;;;;14.98;70.11;92766.00;5016091;28;20053;-94
2021/09/13 00:57:55;;;;;;;8.00;4.13;;;;;;;15.11;70.08;92794.13;5031261;28;20029;-94
2021/09/13 01:00:21;;;;;;;6.35;4.40;;;;;;;14.97;69.96;92770.50;5014860;28;20276;-93
2021/09/13 01:02:48;;;;;;;7.63;4.53;;;;;;;15.11;70.23;92786.22;5018968;28;20040;-94
2021/09/13 01:05:14;;;;;;;7.70;4.63;;;;;;;15.04;70.14;92785.88;5018654;28;20037;-95
2021/09/13 01:07:40;;;;;;;6.43;4.30;;;;;;;14.97;70.60;92780.25;5018693;28;20048;-94
2021/09/13 01:10:12;;;;;;;7.30;4.18;;;;;;;15.08;70.46;92793.94;5033501;28;20036;-93
2021/09/13 01:12:38;;;;;;;7.50;4.60;;;;;;;14.93;70.28;92771.44;5029686;28;20033;-93
2021/09/13 01:15:06;;;;;;;7.30;4.68;;;;;;;14.92;70.08;92775.13;5001378;28;20039;-94
2021/09/13 01:17:32;;;;;;;6.20;4.05;;;;;;;14.91;70.48;92777.00;5022175;28;20478;-93
2021/09/13 01:19:58;;;;;;;8.27;4.53;;;;;;;15.02;70.34;92795.97;5001497;28;20136;-94
2021/09/13 01:22:29;;;;;;;7.40;4.30;;;;;;;14.93;70.16;92777.47;5006247;28;20099;-94
2021/09/13 01:25:01;;;;;;;7.93;4.70;;;;;;;14.92;70.20;92780.41;5012175;28;20049;-95
2021/09/13 01:27:28;;;;;;;7.60;4.25;;;;;;;14.89;70.17;92778.38;5017807;28;20033;-96
2021/09/13 01:29:54;;;;;;;6.55;4.40;;;;;;;14.93;70.32;92785.38;5020122;28;20033;-95
2021/09/13 01:32:20;;;;;;;7.88;4.57;;;;;;;14.90;70.45;92778.06;5003719;28;20445;-94
2021/09/13 01:34:54;;;;;;;6.05;3.85;;;;;;;14.86;70.64;92771.88;5033702;28;20025;-94
2021/09/13 01:37:22;;;;;;;6.88;4.35;;;;;;;15.00;70.74;92803.38;5021982;28;20061;-94
2021/09/13 01:39:52;;;;;;;12.20;5.00;;;;;;;14.86;70.68;92779.78;5021655;28;20029;-92
2021/09/13 01:42:20;;;;;;;6.45;4.00;;;;;;;14.96;71.10;92794.53;5021463;28;20041;-94
2021/09/13 01:44:49;;;;;;;8.07;5.05;;;;;;;15.08;71.19;92810.53;5038404;28;20056;-94
2021/09/13 01:47:18;;;;;;;6.32;4.05;;;;;;;14.83;71.52;92779.59;5018998;28;20043;-94
2021/09/13 01:49:50;;;;;;;7.07;4.90;;;;;;;14.84;71.97;92775.88;5013878;28;20095;-94
2021/09/13 01:52:16;;;;;;;7.45;4.32;;;;;;;14.97;72.05;92793.44;5022111;28;20103;-93
2021/09/13 01:54:44;;;;;;;7.63;4.28;;;;;;;14.94;71.91;92794.06;5014039;28;20041;-95
2021/09/13 01:57:19;;;;;;;6.18;3.90;;;;;;;14.78;71.97;92769.97;5003096;28;20041;-95
2021/09/13 01:59:46;;;;;;;6.80;4.22;;;;;;;14.78;71.63;92773.38;5037701;28;20102;-94
2021/09/13 02:02:14;;;;;;;5.82;3.65;;;;;;;14.87;71.83;92794.50;5013346;28;20045;-94
2021/09/13 02:04:43;;;;;;;8.60;4.82;;;;;;;14.78;71.68;92769.97;5017899;28;20812;-93
2021/09/13 02:07:10;;;;;;;6.10;3.55;;;;;;;14.80;72.09;92777.59;5037219;28;20116;-94
2021/09/13 02:09:44;;;;;;;7.35;5.15;;;;;;;14.77;72.15;92771.84;5020455;28;20056;-94
2021/09/13 02:12:15;;;;;;;7.47;4.50;;;;;;;14.89;72.28;92781.03;5029593;28;21641;-93
2021/09/13 02:14:50;;;;;;;9.40;4.68;;;;;;;14.87;72.08;92783.19;5020700;28;20048;-93
2021/09/13 02:17:16;;;;;;;11.13;4.70;;;;;;;14.84;72.40;92778.50;5029090;28;20030;-93
2021/09/13 02:19:43;;;;;;;7.93;4.88;;;;;;;14.89;72.78;92786.28;5002640;28;20673;-94
2021/09/13 02:22:10;;;;;;;8.13;4.47;;;;;;;14.88;72.81;92782.09;5017209;28;20037;-93
2021/09/13 02:24:36;;;;;;;5.68;3.78;;;;;;;14.81;72.67;92772.00;5018183;28;20128;-93
2021/09/13 02:27:04;;;;;;;7.93;5.35;;;;;;;14.71;72.46;92759.88;5019754;28;20048;-92
2021/09/13 02:29:30;;;;;;;5.60;4.30;;;;;;;14.70;72.04;92766.22;5021160;28;20383;-94
2021/09/13 02:31:56;;;;;;;6.78;3.92;;;;;;;14.80;72.27;92777.59;5014970;28;20389;-94
2021/09/13 02:34:22;;;;;;;7.63;4.65;;;;;;;14.84;72.49;92770.59;5016225;28;20061;-93
2021/09/13 02:36:51;;;;;;;6.82;3.72;;;;;;;14.65;72.26;92758.44;5034670;28;20090;-94
2021/09/13 02:39:17;;;;;;;8.52;4.78;;;;;;;14.66;72.35;92760.00;5019803;28;20025;-94
2021/09/13 02:41:46;;;;;;;6.95;4.65;;;;;;;14.77;72.59;92785.00;5034946;28;20040;-93
2021/09/13 02:44:15;;;;;;;7.63;4.35;;;;;;;14.86;72.72;92797.44;5018192;28;20087;-94
2021/09/13 02:46:41;;;;;;;6.05;4.25;;;;;;;14.60;72.74;92763.09;5034379;28;20071;-95
2021/09/13 02:49:08;;;;;;;8.50;4.82;;;;;;;14.66;72.73;92772.38;5019634;28;20035;-94
2021/09/13 02:51:34;;;;;;;9.43;4.32;;;;;;;14.61;72.63;92762.75;5033698;28;20045;-95
2021/09/13 02:54:03;;;;;;;8.38;4.90;;;;;;;14.58;72.56;92766.00;5019703;28;20044;-94
2021/09/13 02:56:29;;;;;;;6.55;4.68;;;;;;;14.65;72.27;92771.63;5008784;28;20099;-93
2021/09/13 02:58:55;;;;;;;7.95;4.35;;;;;;;14.74;72.23;92782.97;5018734;28;20103;-94
2021/09/13 03:01:22;;;;;;;6.78;4.28;;;;;;;14.74;72.32;92785.59;5026481;28;20127;-93
2021/09/13 03:03:48;;;;;;;7.32;4.20;;;;;;;14.69;72.22;92783.09;5037654;28;20083;-94
2021/09/13 03:06:16;;;;;;;7.13;4.75;;;;;;;14.56;72.37;92762.91;5026131;28;20473;-93
2021/09/13 03:08:43;;;;;;;8.88;4.43;;;;;;;14.60;72.00;92763.84;5005862;28;20037;-95
2021/09/13 03:11:13;;;;;;;8.35;4.85;;;;;;;14.59;72.22;92762.31;5021612;28;20037;-93
2021/09/13 03:13:39;;;;;;;7.40;4.05;;;;;;;14.61;72.05;92770.66;5038742;28;20611;-94
2021/09/13 03:16:06;;;;;;;5.15;3.42;;;;;;;14.53;72.20;92768.75;5021404;28;20112;-94
2021/09/13 03:18:39;;;;;;;6.25;4.15;;;;;;;14.50;72.06;92764.88;5037069;28;20033;-94
2021/09/13 03:21:06;;;;;;;16.33;4.60;;;;;;;14.49;71.97;92765.94;5038703;28;20033;-93
2021/09/13 03:23:35;;;;;;;6.45;3.97;;;;;;;14.45;71.96;92761.59;5039050;28;20091;-95
2021/09/13 03:26:01;;;;;;;6.72;4.75;;;;;;;14.54;72.16;92783.47;5038247;28;20060;-94
2021/09/13 03:28:30;;;;;;;7.35;4.05;;;;;;;14.45;72.54;92766.84;5023190;28;20363;-94
2021/09/13 03:30:58;;;;;;;8.00;4.93;;;;;;;14.50;72.82;92779.88;5002348;28;20037;-93
2021/09/13 03:33:25;;;;;;;6.28;4.13;;;;;;;14.49;72.93;92784.38;5018781;28;20071;-93
2021/09/13 03:35:51;;;;;;;8.90;4.85;;;;;;;14.38;73.24;92768.06;5036745;28;20075;-94
2021/09/13 03:38:20;;;;;;;6.13;4.13;;;;;;;14.34;73.09;92767.13;5033179;28;20061;-92
2021/09/13 03:40:47;;;;;;;6.45;4.55;;;;;;;14.33;73.12;92770.81;5015518;28;20026;-94
2021/09/13 03:43:15;;;;;;;7.65;4.00;;;;;;;14.32;73.17;92764.00;4984213;28;20106;-93
2021/09/13 03:45:41;;;;;;;9.50;4.70;;;;;;;14.49;73.56;92794.91;5002140;28;20033;-94
2021/09/13 03:48:46;;;;;;;7.18;4.03;;;;;;;14.25;73.54;92758.41;5011987;28;20132;-94
2021/09/13 03:51:16;;;;;;;9.63;4.80;;;;;;;14.48;73.53;92803.91;5017428;28;20037;-94
2021/09/13 03:53:45;;;;;;;8.55;5.07;;;;;;;14.24;73.79;92770.00;5012651;28;20053;-95
2021/09/13 03:56:11;;;;;;;8.32;5.25;;;;;;;14.34;74.12;92782.13;4998862;28;20033;-94
2021/09/13 03:58:40;;;;;;;8.13;4.95;;;;;;;14.34;74.36;92792.66;5023468;28;20119;-92
2021/09/13 04:01:06;;;;;;;7.63;4.18;;;;;;;14.36;74.21;92790.50;5018341;28;20049;-93
2021/09/13 04:03:42;;;;;;;6.70;4.43;;;;;;;14.35;74.50;92792.38;5019710;28;20390;-94
2021/09/13 04:06:17;;;;;;;7.78;4.68;;;;;;;14.30;74.41;92781.97;5004305;28;20037;-94
2021/09/13 04:12:05;;;;;;;8.75;5.35;;;;;;;14.15;74.68;92777.06;5051976;28;20051;-93
2021/09/13 04:15:05;;;;;;;8.85;5.03;;;;;;;14.20;74.85;92787.47;5020298;28;20044;-94
2021/09/13 04:17:51;;;;;;;12.68;5.78;;;;;;;14.26;74.51;92790.78;4978364;28;20083;-93
2021/09/13 04:20:36;;;;;;;6.38;4.30;;;;;;;14.18;74.19;92784.34;5035365;28;20067;-93
2021/09/13 04:23:23;;;;;;;6.90;4.30;;;;;;;14.15;74.33;92779.69;5034562;28;20037;-93
2021/09/13 04:26:12;;;;;;;9.35;5.20;;;;;;;14.10;74.54;92767.44;4999710;28;20043;-94
2021/09/13 04:28:57;;;;;;;7.55;4.40;;;;;;;14.09;74.70;92773.00;5046438;28;20053;-94
2021/09/13 04:31:41;;;;;;;7.90;5.13;;;;;;;14.05;74.41;92774.66;5026464;28;20440;-93
2021/09/13 04:34:27;;;;;;;9.65;5.93;;;;;;;14.05;74.37;92779.94;5020233;28;20040;-93
2021/09/13 04:37:22;;;;;;;7.22;5.00;;;;;;;14.10;74.27;92785.09;5009427;28;20389;-93
2021/09/13 04:40:15;;;;;;;8.30;4.68;;;;;;;13.99;74.79;92773.25;5000497;28;20045;-94
2021/09/13 04:42:56;;;;;;;7.35;4.47;;;;;;;13.97;75.09;92778.03;5015157;28;20625;-93
2021/09/13 04:45:48;;;;;;;9.10;4.50;;;;;;;13.99;75.26;92768.75;4993166;28;20045;-93
2021/09/13 04:48:36;;;;;;;6.93;4.82;;;;;;;13.97;75.00;92770.91;5010272;28;20116;-95
2021/09/13 04:51:37;;;;;;;7.30;4.40;;;;;;;14.04;74.89;92783.66;4978186;28;20046;-93
2021/09/13 04:54:29;;;;;;;8.90;5.57;;;;;;;14.07;74.75;92788.31;5031244;28;20080;-92
2021/09/13 04:56:55;;;;;;;7.63;4.53;;;;;;;14.23;74.75;92818.47;5027897;28;20418;-93
2021/09/13 04:59:21;;;;;;;5.85;4.38;;;;;;;14.12;74.35;92802.16;4989531;28;20083;-93
2021/09/13 05:01:48;;;;;;;9.63;5.43;;;;;;;14.08;75.20;92805.69;4990136;28;20050;-92
2021/09/13 05:04:14;;;;;;;7.97;4.75;;;;;;;13.98;75.39;92785.63;5028335;28;20033;-94
2021/09/13 05:06:40;;;;;;;7.60;4.47;;;;;;;14.19;75.39;92820.16;5017716;28;20486;-93
2021/09/13 05:09:10;;;;;;;11.00;5.03;;;;;;;13.99;75.47;92786.41;4993018;28;20045;-93
2021/09/13 05:11:37;;;;;;;7.70;5.25;;;;;;;14.15;75.42;92811.28;4997638;28;20112;-94
2021/09/13 05:14:03;;;;;;;6.68;4.60;;;;;;;14.14;75.19;92801.84;4982643;28;20032;-93
2021/09/13 05:16:31;;;;;;;6.88;4.47;;;;;;;14.15;75.16;92800.75;5031276;28;20033;-92
2021/09/13 05:18:57;;;;;;;8.13;4.72;;;;;;;14.16;75.12;92792.56;5033258;28;20052;-92
2021/09/13 05:21:23;;;;;;;6.85;4.28;;;;;;;14.29;74.98;92805.97;5029686;28;20037;-92
2021/09/13 05:23:55;;;;;;;9.17;4.77;;;;;;;14.30;74.93;92797.00;5014493;28;20044;-92
2021/09/13 05:26:21;;;;;;;7.18;4.28;;;;;;;14.55;74.67;92821.94;4997294;28;20397;-92
2021/09/13 05:28:47;;;;;;;10.95;5.07;;;;;;;14.50;74.73;92808.84;5012476;28;20033;-92
2021/09/13 05:31:13;;;;;;;6.97;4.45;;;;;;;14.57;74.46;92806.63;5029418;28;20401;-92
2021/09/13 05:33:39;;;;;;;8.65;5.30;;;;;;;14.68;74.12;92815.81;5003605;28;20033;-93
2021/09/13 05:36:06;;;;;;;7.55;4.82;;;;;;;14.83;74.02;92824.41;5023804;28;20032;-93
2021/09/13 05:38:35;;;;;;;7.20;4.55;;;;;;;14.81;73.66;92816.78;5027104;28;20107;-92
2021/09/13 05:41:18;;;;;;;8.20;4.20;;;;;;;15.12;73.42;92856.31;5007442;28;20427;-93
2021/09/13 05:43:47;;;;;;;8.85;4.68;;;;;;;14.95;73.68;92814.84;5024322;28;20090;-92
2021/09/13 05:46:14;;;;;;;7.78;4.93;;;;;;;15.22;73.63;92842.09;5002096;28;20037;-93
2021/09/13 05:48:45;;;;;;;8.35;5.03;;;;;;;15.14;72.65;92814.59;4979544;28;20037;-93
2021/09/13 05:51:11;;;;;;;9.27;5.28;;;;;;;15.31;72.49;92827.06;4999136;28;20048;-93
2021/09/13 05:53:37;;;;;;;8.00;5.22;;;;;;;15.74;71.87;92844.84;5031919;28;20029;-93
2021/09/13 05:56:03;;;;;;;7.78;4.95;;;;;;;16.22;70.25;92851.09;4997625;28;20033;-93
2021/09/13 05:58:31;;;;;;;7.75;5.30;;;;;;;16.54;69.38;92841.09;4996000;28;20083;-92
2021/09/13 06:00:57;;;;;;;8.40;4.78;;;;;;;17.04;68.15;92849.25;5027800;28;20045;-94
2021/09/13 06:03:23;;;;;;;10.27;5.40;;;;;;;17.27;66.74;92836.53;5024691;28;20045;-92
2021/09/13 06:05:56;;;;;;;17.40;4.68;;;;;;;17.45;65.97;92836.44;5007184;28;20040;-93
2021/09/13 06:08:22;;;;;;;9.50;5.82;;;;;;;17.82;64.76;92829.53;5031747;28;20037;-93
2021/09/13 06:10:48;;;;;;;10.35;5.72;;;;;;;18.90;61.54;92838.59;5013029;28;20036;-93
2021/09/13 06:13:17;;;;;;;11.13;5.10;;;;;;;20.06;58.08;92855.09;5016167;28;20044;-93
2021/09/13 06:15:43;;;;;;;7.28;4.53;;;;;;;21.35;55.03;92855.06;5014814;28;20246;-94
2021/09/13 06:18:11;;;;;;;6.32;4.45;;;;;;;22.55;51.54;92834.06;5001056;28;20306;-93
2021/09/13 06:20:37;;;;;;;9.50;5.50;;;;;;;23.67;48.95;92856.22;5010422;28;20061;-93
2021/09/13 06:23:03;;;;;;;8.40;5.15;;;;;;;24.50;46.90;92838.66;5003192;28;20040;-93
2021/09/13 06:25:34;;;;;;;11.05;4.85;;;;;;;25.25;44.70;92846.72;5019298;28;20390;-93
2021/09/13 06:28:04;;;;;;;10.55;5.25;;;;;;;25.71;43.77;92841.75;5008596;28;20049;-93
2021/09/13 06:30:33;;;;;;;6.68;4.55;;;;;;;26.41;42.00;92844.44;5026110;28;20041;-93
2021/09/13 06:33:02;;;;;;;8.40;5.30;;;;;;;27.06;40.50;92839.31;5011619;28;20037;-93
2021/09/13 06:35:33;;;;;;;7.72;5.20;;;;;;;27.85;39.59;92856.28;5019855;28;20295;-92
2021/09/13 06:38:08;;;;;;;8.13;5.32;;;;;;;27.99;37.56;92847.47;5019813;28;20037;-96
2021/09/13 06:40:40;;;;;;;8.68;5.63;;;;;;;28.78;36.82;92860.72;5020166;28;20033;-92
2021/09/13 06:43:09;;;;;;;9.60;6.10;;;;;;;29.19;36.18;92855.50;5031799;28;20029;-93
2021/09/13 06:45:44;;;;;;;9.75;5.32;;;;;;;29.66;34.98;92861.34;5018950;28;20075;-93
2021/09/13 06:48:11;;;;;;;7.25;4.97;;;;;;;29.83;34.76;92878.56;5018872;28;20033;-93
2021/09/13 06:50:38;;;;;;;12.35;4.93;;;;;;;30.36;33.84;92859.63;5035195;28;20031;-92
2021/09/13 06:53:05;;;;;;;10.40;5.95;;;;;;;30.69;33.11;92860.75;5034247;28;20136;-91
2021/09/13 06:55:31;;;;;;;7.85;5.55;;;;;;;30.99;32.53;92862.75;5012864;28;20147;-92
2021/09/13 06:57:58;;;;;;;8.05;5.30;;;;;;;31.85;31.19;92872.34;5035039;28;20029;-91
2021/09/13 07:00:24;;;;;;;7.63;4.95;;;;;;;32.07;30.30;92866.63;5033238;28;20037;-91
2021/09/13 07:02:51;;;;;;;7.30;4.68;;;;;;;32.02;29.67;92865.16;5033777;28;20576;-91
2021/09/13 07:05:17;;;;;;;6.65;4.85;;;;;;;31.68;31.40;92874.16;5001030;28;20041;-92
2021/09/13 07:07:43;;;;;;;7.38;4.43;;;;;;;29.96;35.03;92867.28;5005019;28;20026;-92
2021/09/13 07:10:16;;;;;;;8.63;4.68;;;;;;;29.63;34.75;92875.63;5002481;28;20039;-92
2021/09/13 07:12:43;;;;;;;7.38;4.63;;;;;;;28.10;37.39;92875.13;5010954;28;20041;-91
2021/09/13 07:15:09;;;;;;;8.48;5.45;;;;;;;27.25;40.20;92873.94;5010144;28;20036;-92
2021/09/13 07:17:35;;;;;;;9.40;5.07;;;;;;;26.31;42.07;92867.41;5034133;28;20041;-90
2021/09/13 07:20:01;;;;;;;8.00;4.75;;;;;;;25.34;45.13;92876.66;5032033;28;20036;-91
2021/09/13 07:22:27;;;;;;;8.23;4.55;;;;;;;24.12;48.47;92874.47;5028457;28;20493;-91
2021/09/13 07:24:53;;;;;;;6.63;4.13;;;;;;;23.67;49.59;92884.84;5014655;28;20041;-91
2021/09/13 07:27:19;;;;;;;7.32;4.85;;;;;;;23.18;50.89;92869.56;4996437;28;20033;-92
2021/09/13 07:29:45;;;;;;;8.93;5.35;;;;;;;22.98;52.45;92890.91;4997668;28;20038;-93
2021/09/13 07:32:11;;;;;;;8.48;4.75;;;;;;;22.85;52.88;92897.53;4989229;28;20563;-91
2021/09/13 07:34:37;;;;;;;9.23;4.38;;;;;;;22.02;55.71;92892.38;5054166;28;20029;-91
2021/09/13 07:37:03;;;;;;;6.85;4.38;;;;;;;22.22;54.78;92894.00;5042806;28;20040;-91
2021/09/13 07:39:30;;;;;;;6.88;4.50;;;;;;;22.64;55.41;92897.88;5032168;28;20025;-91
2021/09/13 07:41:57;;;;;;;6.28;4.15;;;;;;;22.51;53.49;92878.56;5034547;28;20041;-91
2021/09/13 07:44:24;;;;;;;8.52;4.85;;;;;;;22.51;54.01;92902.59;4998220;28;20438;-90
2021/09/13 07:46:50;;;;;;;6.00;3.72;;;;;;;22.13;53.37;92879.28;5047436;28;20194;-90
2021/09/13 07:49:16;;;;;;;6.13;4.53;;;;;;;21.87;57.21;92880.66;5013396;28;20064;-90
2021/09/13 07:51:42;;;;;;;6.25;4.20;;;;;;;22.19;54.06;92905.31;5028673;28;20034;-91
2021/09/13 07:54:08;;;;;;;7.65;4.40;;;;;;;21.97;55.91;92903.31;5011477;28;20045;-91
2021/09/13 07:56:34;;;;;;;8.27;4.40;;;;;;;22.13;54.24;92914.72;5014282;28;20044;-91
2021/09/13 07:59:03;;;;;;;9.07;4.95;;;;;;;20.87;59.28;92907.44;5016609;28;20398;-90
2021/09/13 08:01:34;;;;;;;7.00;4.57;;;;;;;21.78;56.94;92915.47;5015088;28;20398;-92
2021/09/13 08:04:00;;;;;;;7.03;3.80;;;;;;;22.18;53.66;92929.69;5030420;28;20036;-92
2021/09/13 08:06:35;;;;;;;15.43;4.25;;;;;;;22.19;51.73;92894.66;4996293;28;20037;-90
2021/09/13 08:09:06;;;;;;;6.90;4.57;;;;;;;22.03;55.04;92907.25;5015770;28;20192;-91
2021/09/13 08:11:32;;;;;;;7.07;4.45;;;;;;;21.51;57.69;92905.69;5024000;28;20029;-90
2021/09/13 08:13:58;;;;;;;7.88;4.32;;;;;;;21.82;54.09;92913.66;5011840;28;20047;-91
2021/09/13 08:16:25;;;;;;;7.70;4.55;;;;;;;21.77;49.71;92897.16;5013880;28;20036;-89
2021/09/13 08:18:51;;;;;;;8.48;4.50;;;;;;;21.75;53.42;92915.38;5015622;28;20028;-91
2021/09/13 08:21:40;;;;;;;5.90;3.42;;;;;;;22.20;54.78;92928.22;5016793;28;20452;-92
2021/09/13 08:24:12;;;;;;;6.88;4.18;;;;;;;22.26;49.98;92909.31;5031442;28;20074;-90
2021/09/13 08:26:45;;;;;;;7.43;4.60;;;;;;;22.29;49.13;92916.59;5030134;28;20375;-90
2021/09/13 08:29:15;;;;;;;7.88;4.20;;;;;;;22.35;50.26;92937.31;5015970;28;20464;-90
2021/09/13 08:32:27;;;;;;;7.15;4.43;;;;;;;21.96;51.06;92907.09;5028342;28;20049;-93
2021/09/13 08:34:58;;;;;;;7.85;4.88;;;;;;;22.30;48.65;92899.50;5024459;28;20045;-93
2021/09/13 08:37:24;;;;;;;7.28;4.65;;;;;;;22.27;50.19;92926.84;5017738;28;20136;-90
2021/09/13 08:39:53;;;;;;;7.47;4.95;;;;;;;22.43;49.23;92901.69;4967409;28;20173;-91
2021/09/13 08:42:22;;;;;;;5.70;3.67;;;;;;;22.22;52.40;92917.22;4980750;28;20124;-89
2021/09/13 08:44:51;;;;;;;7.97;4.20;;;;;;;22.58;50.67;92915.28;4982446;28;20041;-92
2021/09/13 08:48:03;;;;;;;9.50;4.47;;;;;;;22.58;50.56;92915.28;4994632;28;20025;-90
2021/09/13 08:51:04;;;;;;;7.93;4.65;;;;;;;22.72;49.87;92909.47;5014039;28;20045;-91
2021/09/13 08:53:54;;;;;;;6.50;4.15;;;;;;;22.28;48.49;92907.06;5018915;28;20139;-90
2021/09/13 08:57:02;;;;;;;;;;;;;;;;;;;;;
2021/09/13 08:59:53;;;;;;;9.20;4.53;;;;;;;22.36;50.62;92924.75;5036061;28;20038;-93
2021/09/13 09:03:08;;;;;;;7.10;4.00;;;;;;;22.08;52.14;92911.56;5012175;28;20397;-91
2021/09/13 09:07:46;;;;;;;;;;;;;;;;;;;;;
2021/09/13 09:10:29;;;;;;;;;;;;;;;22.42;52.55;92945.47;5033052;28;20051;-92
2021/09/13 09:13:27;;;;;;;7.95;5.57;;;;;;;22.54;48.89;92925.13;5033895;28;19924;-92
2021/09/13 09:20:46;;;;;;;10.05;5.53;;;;;;;23.18;48.03;92928.28;4965385;28;20086;-91
2021/09/13 09:23:23;;;;;;;9.05;5.18;;;;;;;22.77;48.59;92911.88;4958086;28;20046;-92
2021/09/13 09:25:55;;;;;;;10.07;6.13;;;;;;;23.05;47.48;92912.41;5022957;28;20450;-90
2021/09/13 09:28:21;;;;;;;11.30;6.18;;;;;;;22.91;46.85;92909.47;5004208;28;20098;-88
2021/09/13 09:30:51;;;;;;;6.80;4.97;;;;;;;22.92;49.20;92924.38;5033096;28;20033;-88
2021/09/13 09:33:25;;;;;;;8.45;5.22;;;;;;;22.83;48.90;92934.47;5036364;28;20057;-88
2021/09/13 09:35:56;;;;;;;11.38;6.57;;;;;;;22.78;47.50;92918.75;4992873;28;20516;-91
2021/09/13 09:38:47;;;;;;;11.47;5.53;;;;;;;22.97;50.17;92921.41;5001727;28;20033;-91
2021/09/13 09:41:25;;;;;;;9.82;5.82;;;;;;;22.90;50.13;92926.63;4989664;28;20044;-92
2021/09/13 09:44:01;;;;;;;9.98;5.82;;;;;;;23.33;49.34;92922.09;5026048;28;20033;-91
2021/09/13 09:46:40;;;;;;;10.70;5.47;;;;;;;23.21;50.61;92923.00;5001628;28;20052;-92
2021/09/13 09:49:12;;;;;;;7.63;4.68;;;;;;;22.56;52.30;92931.66;5022257;28;20032;-92
2021/09/13 09:51:55;;;;;;;6.97;4.63;;;;;;;23.01;52.06;92916.94;4993688;28;20034;-92
2021/09/13 09:54:28;;;;;;;9.20;4.82;;;;;;;23.35;49.99;92924.38;5018580;28;20276;-92
2021/09/13 09:57:19;;;;;;;;;;;;;;;;;;;;;
2021/09/13 09:59:59;;;;;;;9.52;4.90;;;;;;;23.52;50.00;92915.13;5044003;28;20033;-91
2021/09/13 10:02:27;;;;;;;9.10;5.22;;;;;;;23.12;51.15;92913.69;5020225;28;20393;-92
2021/09/13 10:04:54;;;;;;;8.60;5.45;;;;;;;23.40;50.12;92926.78;5003019;28;20418;-92
2021/09/13 10:07:23;;;;;;;8.10;4.03;;;;;;;23.13;51.50;92934.69;5035829;28;20483;-93
2021/09/13 10:09:48;;;;;;;7.85;5.25;;;;;;;22.79;53.20;92933.63;5012459;28;20064;-92
2021/09/13 10:12:14;;;;;;;11.15;4.70;;;;;;;23.24;50.36;92910.88;4976965;28;20041;-93
2021/09/13 10:14:41;;;;;;;7.22;4.93;;;;;;;22.86;51.45;92928.44;5014285;28;20037;-91
2021/09/13 10:17:07;;;;;;;8.27;4.88;;;;;;;22.81;52.52;92928.72;5004146;28;20029;-92
2021/09/13 10:19:34;;;;;;;8.15;4.85;;;;;;;23.38;50.74;92939.72;5005578;28;20043;-92
2021/09/13 10:22:01;;;;;;;9.73;5.30;;;;;;;23.74;50.91;92929.63;5006997;28;20064;-92
2021/09/13 10:24:31;;;;;;;7.95;5.40;;;;;;;23.52;50.55;92933.84;4991968;28;20099;-92
2021/09/13 10:27:12;;;;;;;12.20;4.68;;;;;;;23.67;49.32;92927.59;5016712;28;20060;-93
2021/09/13 10:29:39;;;;;;;8.87;5.50;;;;;;;23.22;52.04;92929.13;5024068;28;20064;-92
2021/09/13 10:32:16;;;;;;;7.05;4.55;;;;;;;23.37;50.96;92909.56;5000819;28;20268;-92
2021/09/13 10:34:42;;;;;;;7.15;4.55;;;;;;;23.98;50.16;92931.16;5008859;28;20065;-94
2021/09/13 10:37:14;;;;;;;7.40;4.03;;;;;;;23.40;50.99;92927.53;5018610;28;20481;-92
2021/09/13 10:39:58;;;;;;;8.45;5.22;;;;;;;23.38;50.15;92935.13;5009258;28;20550;-93
2021/09/13 10:42:50;;;;;;;7.70;4.85;;;;;;;23.19;50.09;92895.09;5034937;28;20482;-91
2021/09/13 10:45:29;;;;;;;6.15;4.30;;;;;;;23.79;48.87;92926.69;4999146;28;20030;-92
2021/09/13 10:47:54;;;;;;;9.23;5.18;;;;;;;24.00;49.86;92920.88;5002853;28;20037;-92
2021/09/13 10:50:36;;;;;;;8.95;5.70;;;;;;;23.27;49.76;92912.81;5018217;28;20036;-91
2021/09/13 10:53:32;;;;;;;7.78;4.40;;;;;;;23.97;48.28;92917.03;5020796;28;20029;-93
2021/09/13 10:56:21;;;;;;;8.93;4.75;;;;;;;24.21;48.60;92913.16;5033970;28;20108;-92
2021/09/13 10:58:50;;;;;;;14.57;5.40;;;;;;;24.22;46.84;92906.69;5010982;28;20045;-92
2021/09/13 11:01:24;;;;;;;8.57;5.75;;;;;;;24.37;47.55;92918.34;5014312;28;20046;-92
2021/09/13 11:03:53;;;;;;;7.93;4.75;;;;;;;24.52;47.48;92919.34;4992883;28;20084;-91
2021/09/13 11:06:18;;;;;;;7.43;3.78;;;;;;;24.37;44.81;92918.34;5024695;28;20037;-93
2021/09/13 11:08:59;;;;;;;7.22;4.97;;;;;;;24.59;46.81;92906.06;5015193;28;20110;-93
2021/09/13 11:11:27;;;;;;;13.48;5.90;;;;;;;24.57;44.90;92892.28;5031147;28;20037;-93
2021/09/13 11:14:06;;;;;;;11.20;7.03;;;;;;;24.13;45.37;92887.44;5029986;28;20064;-92
2021/09/13 11:16:35;;;;;;;10.45;5.75;;;;;;;24.04;45.30;92890.38;5030794;28;20084;-92
2021/09/13 11:19:09;;;;;;;7.05;4.43;;;;;;;24.14;45.74;92872.97;5012188;28;20049;-92
2021/09/13 11:21:41;;;;;;;9.05;5.82;;;;;;;24.00;47.10;92888.78;5033000;28;20143;-93
2021/09/13 11:24:11;;;;;;;7.63;4.55;;;;;;;24.54;44.24;92908.25;5004593;28;20033;-93
2021/09/13 11:26:58;;;;;;;10.65;5.70;;;;;;;24.34;44.54;92904.91;5030385;28;20087;-93
2021/09/13 11:29:32;;;;;;;9.48;4.78;;;;;;;24.76;44.70;92887.88;5029169;28;20105;-91
2021/09/13 11:32:04;;;;;;;10.65;6.40;;;;;;;24.55;44.63;92875.81;5004755;28;20063;-92
2021/09/13 11:34:38;;;;;;;9.63;5.60;;;;;;;24.57;45.32;92904.88;5032782;28;20072;-91
2021/09/13 11:37:26;;;;;;;7.75;5.53;;;;;;;24.21;44.80;92897.13;5016399;28;20044;-93
2021/09/13 11:40:14;;;;;;;5.88;3.78;;;;;;;24.34;43.58;92875.50;5019012;28;20080;-92
2021/09/13 11:46:22;;;;;;;8.38;5.28;;;;;;;24.48;42.58;92855.06;5054644;28;20045;-94
2021/09/13 11:48:57;;;;;;;6.75;4.40;;;;;;;24.68;41.62;92850.34;4945021;28;20528;-94
2021/09/13 11:51:34;;;;;;;7.03;4.35;;;;;;;24.69;39.60;92859.91;4973258;28;20128;-94
2021/09/13 11:54:44;;;;;;;8.57;4.38;;;;;;;24.53;40.91;92840.59;4986843;28;20089;-95
2021/09/13 11:57:48;;;;;;;;;;;;;;;;;;;;;
2021/09/13 12:00:38;;;;;;;5.13;3.20;;;;;;;24.68;38.54;92836.19;4962581;28;20053;-94
2021/09/13 12:03:52;;;;;;;8.32;4.10;;;;;;;24.92;39.04;92840.25;4973242;28;20062;-94
2021/09/13 12:06:43;;;;;;;5.47;3.90;;;;;;;25.29;38.26;92868.97;4957064;28;20070;-94
2021/09/13 12:09:25;;;;;;;7.70;5.03;;;;;;;24.38;37.86;92838.88;4959096;28;20077;-95
2021/09/13 12:12:05;;;;;;;6.80;4.03;;;;;;;24.76;38.70;92839.72;4960379;28;20046;-94
2021/09/13 12:14:50;;;;;;;;;;;;;;;;;;;;;
2021/09/13 12:18:09;;;;;;;5.45;3.28;;;;;;;25.08;39.51;92832.78;4979090;28;20129;-95